sensor_id;sensor_type;location;lat;lon;timestamp;P1;durP1;ratioP1;P2;durP2;ratioP2
75209;SDS011;63796;53.136;14.882;2023-06-22T00:00:26;14.80;;;9.30;;
75209;SDS011;63796;53.136;14.882;2023-06-22T00:03:14;12.60;;;9.70;;
75209;SDS011;63796;53.136;14.882;2023-06-22T00:05:41;12.30;;;8.90;;
75209;SDS011;63796;53.136;14.882;2023-06-22T00:08:09;14.60;;;9.20;;
75209;SDS011;63796;53.136;14.882;2023-06-22T00:10:37;21.60;;;10.00;;
75209;SDS011;63796;53.136;14.882;2023-06-22T00:13:05;15.90;;;9.80;;
75209;SDS011;63796;53.136;14.882;2023-06-22T00:15:33;14.40;;;10.10;;
75209;SDS011;63796;53.136;14.882;2023-06-22T00:18:01;14.40;;;11.20;;
75209;SDS011;63796;53.136;14.882;2023-06-22T00:20:29;15.20;;;10.40;;
75209;SDS011;63796;53.136;14.882;2023-06-22T00:22:59;13.30;;;8.90;;
75209;SDS011;63796;53.136;14.882;2023-06-22T00:25:27;16.70;;;9.70;;
75209;SDS011;63796;53.136;14.882;2023-06-22T00:27:54;14.60;;;9.40;;
75209;SDS011;63796;53.136;14.882;2023-06-22T00:30:21;11.00;;;7.40;;
75209;SDS011;63796;53.136;14.882;2023-06-22T00:32:49;9.30;;;7.30;;
75209;SDS011;63796;53.136;14.882;2023-06-22T00:35:16;12.90;;;8.30;;
75209;SDS011;63796;53.136;14.882;2023-06-22T00:37:43;9.40;;;6.80;;
75209;SDS011;63796;53.136;14.882;2023-06-22T00:40:11;9.70;;;6.80;;
75209;SDS011;63796;53.136;14.882;2023-06-22T00:42:39;8.30;;;5.80;;
75209;SDS011;63796;53.136;14.882;2023-06-22T00:45:07;9.40;;;6.00;;
75209;SDS011;63796;53.136;14.882;2023-06-22T00:47:34;8.60;;;5.30;;
75209;SDS011;63796;53.136;14.882;2023-06-22T00:50:05;7.30;;;5.50;;
75209;SDS011;63796;53.136;14.882;2023-06-22T00:52:34;8.00;;;4.90;;
75209;SDS011;63796;53.136;14.882;2023-06-22T00:55:02;5.70;;;4.40;;
75209;SDS011;63796;53.136;14.882;2023-06-22T00:57:30;8.20;;;4.10;;
75209;SDS011;63796;53.136;14.882;2023-06-22T00:59:57;6.70;;;4.40;;
75209;SDS011;63796;53.136;14.882;2023-06-22T01:02:25;6.80;;;4.60;;
75209;SDS011;63796;53.136;14.882;2023-06-22T01:04:52;7.80;;;4.10;;
75209;SDS011;63796;53.136;14.882;2023-06-22T01:07:35;8.80;;;4.10;;
75209;SDS011;63796;53.136;14.882;2023-06-22T01:12:55;5.00;;;4.00;;
75209;SDS011;63796;53.136;14.882;2023-06-22T01:17:56;8.90;;;4.20;;
75209;SDS011;63796;53.136;14.882;2023-06-22T01:20:27;6.90;;;4.00;;
75209;SDS011;63796;53.136;14.882;2023-06-22T01:23:17;10.60;;;3.90;;
75209;SDS011;63796;53.136;14.882;2023-06-22T01:25:57;24.30;;;5.30;;
75209;SDS011;63796;53.136;14.882;2023-06-22T01:28:52;19.90;;;5.60;;
75209;SDS011;63796;53.136;14.882;2023-06-22T01:31:23;16.20;;;4.80;;
75209;SDS011;63796;53.136;14.882;2023-06-22T01:33:54;13.50;;;4.70;;
75209;SDS011;63796;53.136;14.882;2023-06-22T01:36:24;24.80;;;5.50;;
75209;SDS011;63796;53.136;14.882;2023-06-22T01:38:52;18.10;;;4.80;;
75209;SDS011;63796;53.136;14.882;2023-06-22T01:41:20;10.70;;;5.90;;
75209;SDS011;63796;53.136;14.882;2023-06-22T01:43:48;15.00;;;6.50;;
75209;SDS011;63796;53.136;14.882;2023-06-22T01:46:17;14.00;;;5.20;;
75209;SDS011;63796;53.136;14.882;2023-06-22T01:48:46;14.90;;;6.40;;
75209;SDS011;63796;53.136;14.882;2023-06-22T01:51:14;17.10;;;5.40;;
75209;SDS011;63796;53.136;14.882;2023-06-22T01:53:42;14.10;;;5.90;;
75209;SDS011;63796;53.136;14.882;2023-06-22T01:56:09;17.00;;;6.30;;
75209;SDS011;63796;53.136;14.882;2023-06-22T01:58:41;14.60;;;7.10;;
75209;SDS011;63796;53.136;14.882;2023-06-22T02:01:12;13.30;;;6.50;;
75209;SDS011;63796;53.136;14.882;2023-06-22T02:03:44;13.60;;;6.70;;
75209;SDS011;63796;53.136;14.882;2023-06-22T02:06:16;15.10;;;6.40;;
75209;SDS011;63796;53.136;14.882;2023-06-22T02:08:53;11.60;;;6.40;;
75209;SDS011;63796;53.136;14.882;2023-06-22T02:11:21;14.20;;;6.70;;
75209;SDS011;63796;53.136;14.882;2023-06-22T02:13:49;13.20;;;6.50;;
75209;SDS011;63796;53.136;14.882;2023-06-22T02:16:17;13.00;;;7.40;;
75209;SDS011;63796;53.136;14.882;2023-06-22T02:18:49;13.50;;;7.30;;
75209;SDS011;63796;53.136;14.882;2023-06-22T02:21:20;17.50;;;7.30;;
75209;SDS011;63796;53.136;14.882;2023-06-22T02:23:48;19.00;;;7.30;;
75209;SDS011;63796;53.136;14.882;2023-06-22T02:26:17;11.40;;;7.90;;
75209;SDS011;63796;53.136;14.882;2023-06-22T02:28:45;11.00;;;7.80;;
75209;SDS011;63796;53.136;14.882;2023-06-22T02:31:13;15.60;;;7.20;;
75209;SDS011;63796;53.136;14.882;2023-06-22T02:33:40;14.90;;;7.20;;
75209;SDS011;63796;53.136;14.882;2023-06-22T02:36:07;11.10;;;6.90;;
75209;SDS011;63796;53.136;14.882;2023-06-22T02:38:36;8.70;;;6.30;;
75209;SDS011;63796;53.136;14.882;2023-06-22T02:41:03;16.00;;;6.80;;
75209;SDS011;63796;53.136;14.882;2023-06-22T02:43:31;15.10;;;7.00;;
75209;SDS011;63796;53.136;14.882;2023-06-22T02:45:58;15.50;;;7.60;;
75209;SDS011;63796;53.136;14.882;2023-06-22T02:48:25;15.60;;;7.40;;
75209;SDS011;63796;53.136;14.882;2023-06-22T02:50:53;15.40;;;8.00;;
75209;SDS011;63796;53.136;14.882;2023-06-22T02:53:20;12.80;;;7.40;;
75209;SDS011;63796;53.136;14.882;2023-06-22T02:55:48;16.20;;;7.30;;
75209;SDS011;63796;53.136;14.882;2023-06-22T02:58:15;15.90;;;7.20;;
75209;SDS011;63796;53.136;14.882;2023-06-22T03:00:43;15.00;;;7.30;;
75209;SDS011;63796;53.136;14.882;2023-06-22T03:03:10;15.30;;;7.10;;
75209;SDS011;63796;53.136;14.882;2023-06-22T03:05:38;9.20;;;6.80;;
75209;SDS011;63796;53.136;14.882;2023-06-22T03:08:07;9.20;;;6.70;;
75209;SDS011;63796;53.136;14.882;2023-06-22T03:10:34;13.80;;;7.10;;
75209;SDS011;63796;53.136;14.882;2023-06-22T03:13:02;15.70;;;7.00;;
75209;SDS011;63796;53.136;14.882;2023-06-22T03:15:29;13.90;;;6.40;;
75209;SDS011;63796;53.136;14.882;2023-06-22T03:17:58;11.60;;;6.50;;
75209;SDS011;63796;53.136;14.882;2023-06-22T03:20:25;10.50;;;6.20;;
75209;SDS011;63796;53.136;14.882;2023-06-22T03:22:54;12.90;;;6.80;;
75209;SDS011;63796;53.136;14.882;2023-06-22T03:25:22;16.20;;;7.00;;
75209;SDS011;63796;53.136;14.882;2023-06-22T03:27:49;12.60;;;6.70;;
75209;SDS011;63796;53.136;14.882;2023-06-22T03:30:16;15.50;;;6.80;;
75209;SDS011;63796;53.136;14.882;2023-06-22T03:32:44;16.70;;;6.00;;
75209;SDS011;63796;53.136;14.882;2023-06-22T03:35:11;14.80;;;6.40;;
75209;SDS011;63796;53.136;14.882;2023-06-22T03:37:41;17.10;;;6.80;;
75209;SDS011;63796;53.136;14.882;2023-06-22T03:40:08;13.50;;;6.10;;
75209;SDS011;63796;53.136;14.882;2023-06-22T03:42:36;17.00;;;5.80;;
75209;SDS011;63796;53.136;14.882;2023-06-22T03:45:04;13.30;;;5.90;;
75209;SDS011;63796;53.136;14.882;2023-06-22T03:47:32;19.30;;;7.30;;
75209;SDS011;63796;53.136;14.882;2023-06-22T03:50:00;15.80;;;6.10;;
75209;SDS011;63796;53.136;14.882;2023-06-22T03:52:27;12.80;;;6.40;;
75209;SDS011;63796;53.136;14.882;2023-06-22T03:54:54;16.20;;;6.10;;
75209;SDS011;63796;53.136;14.882;2023-06-22T03:57:21;11.30;;;5.70;;
75209;SDS011;63796;53.136;14.882;2023-06-22T03:59:49;18.20;;;6.10;;
75209;SDS011;63796;53.136;14.882;2023-06-22T04:02:16;11.70;;;6.20;;
75209;SDS011;63796;53.136;14.882;2023-06-22T04:04:44;13.10;;;5.50;;
75209;SDS011;63796;53.136;14.882;2023-06-22T04:07:12;11.30;;;5.60;;
75209;SDS011;63796;53.136;14.882;2023-06-22T04:09:39;10.50;;;5.70;;
75209;SDS011;63796;53.136;14.882;2023-06-22T04:12:07;15.30;;;6.20;;
75209;SDS011;63796;53.136;14.882;2023-06-22T04:14:34;14.80;;;6.30;;
75209;SDS011;63796;53.136;14.882;2023-06-22T04:17:02;12.30;;;5.80;;
75209;SDS011;63796;53.136;14.882;2023-06-22T04:19:29;11.30;;;5.50;;
75209;SDS011;63796;53.136;14.882;2023-06-22T04:21:56;12.30;;;5.80;;
75209;SDS011;63796;53.136;14.882;2023-06-22T04:24:23;13.70;;;6.30;;
75209;SDS011;63796;53.136;14.882;2023-06-22T04:26:51;12.30;;;5.30;;
75209;SDS011;63796;53.136;14.882;2023-06-22T04:29:21;9.10;;;5.40;;
75209;SDS011;63796;53.136;14.882;2023-06-22T04:31:56;7.50;;;5.40;;
75209;SDS011;63796;53.136;14.882;2023-06-22T04:34:25;7.40;;;4.90;;
75209;SDS011;63796;53.136;14.882;2023-06-22T04:36:55;8.00;;;4.50;;
75209;SDS011;63796;53.136;14.882;2023-06-22T04:39:23;8.10;;;5.50;;
75209;SDS011;63796;53.136;14.882;2023-06-22T04:41:51;7.80;;;5.00;;
75209;SDS011;63796;53.136;14.882;2023-06-22T04:44:18;8.00;;;4.60;;
75209;SDS011;63796;53.136;14.882;2023-06-22T04:46:59;8.90;;;4.60;;
75209;SDS011;63796;53.136;14.882;2023-06-22T04:49:36;6.00;;;4.20;;
75209;SDS011;63796;53.136;14.882;2023-06-22T04:52:09;7.60;;;4.40;;
75209;SDS011;63796;53.136;14.882;2023-06-22T04:54:38;7.70;;;4.10;;
75209;SDS011;63796;53.136;14.882;2023-06-22T04:57:07;7.90;;;4.80;;
75209;SDS011;63796;53.136;14.882;2023-06-22T04:59:38;4.80;;;4.00;;
75209;SDS011;63796;53.136;14.882;2023-06-22T05:02:06;8.10;;;4.20;;
75209;SDS011;63796;53.136;14.882;2023-06-22T05:04:33;7.20;;;4.20;;
75209;SDS011;63796;53.136;14.882;2023-06-22T05:07:03;7.70;;;4.50;;
75209;SDS011;63796;53.136;14.882;2023-06-22T05:09:31;7.30;;;4.20;;
75209;SDS011;63796;53.136;14.882;2023-06-22T05:11:58;11.40;;;7.90;;
75209;SDS011;63796;53.136;14.882;2023-06-22T05:14:27;7.10;;;4.60;;
75209;SDS011;63796;53.136;14.882;2023-06-22T05:16:54;8.80;;;4.60;;
75209;SDS011;63796;53.136;14.882;2023-06-22T05:19:25;7.80;;;4.40;;
75209;SDS011;63796;53.136;14.882;2023-06-22T05:22:01;8.30;;;4.40;;
75209;SDS011;63796;53.136;14.882;2023-06-22T05:24:28;9.00;;;4.50;;
75209;SDS011;63796;53.136;14.882;2023-06-22T05:26:56;10.40;;;5.10;;
75209;SDS011;63796;53.136;14.882;2023-06-22T05:29:23;7.30;;;4.80;;
75209;SDS011;63796;53.136;14.882;2023-06-22T05:31:51;10.60;;;4.40;;
75209;SDS011;63796;53.136;14.882;2023-06-22T05:34:18;7.50;;;4.60;;
75209;SDS011;63796;53.136;14.882;2023-06-22T05:36:45;9.40;;;4.40;;
75209;SDS011;63796;53.136;14.882;2023-06-22T05:39:14;8.10;;;4.60;;
75209;SDS011;63796;53.136;14.882;2023-06-22T05:41:41;8.70;;;4.60;;
75209;SDS011;63796;53.136;14.882;2023-06-22T05:44:10;9.30;;;4.30;;
75209;SDS011;63796;53.136;14.882;2023-06-22T05:46:41;6.40;;;5.10;;
75209;SDS011;63796;53.136;14.882;2023-06-22T05:49:12;8.60;;;7.50;;
75209;SDS011;63796;53.136;14.882;2023-06-22T05:51:40;4.80;;;4.10;;
75209;SDS011;63796;53.136;14.882;2023-06-22T05:54:07;6.70;;;3.80;;
75209;SDS011;63796;53.136;14.882;2023-06-22T05:56:37;8.70;;;3.80;;
75209;SDS011;63796;53.136;14.882;2023-06-22T05:59:04;5.50;;;4.00;;
75209;SDS011;63796;53.136;14.882;2023-06-22T06:01:32;7.50;;;4.30;;
75209;SDS011;63796;53.136;14.882;2023-06-22T06:04:03;7.60;;;3.90;;
75209;SDS011;63796;53.136;14.882;2023-06-22T06:06:31;5.80;;;3.80;;
75209;SDS011;63796;53.136;14.882;2023-06-22T06:08:59;7.00;;;4.30;;
75209;SDS011;63796;53.136;14.882;2023-06-22T06:11:26;8.80;;;4.10;;
75209;SDS011;63796;53.136;14.882;2023-06-22T06:13:54;5.60;;;3.80;;
75209;SDS011;63796;53.136;14.882;2023-06-22T06:16:22;6.70;;;4.40;;
75209;SDS011;63796;53.136;14.882;2023-06-22T06:18:49;8.10;;;4.00;;
75209;SDS011;63796;53.136;14.882;2023-06-22T06:21:20;7.50;;;3.20;;
75209;SDS011;63796;53.136;14.882;2023-06-22T06:23:47;4.60;;;3.80;;
75209;SDS011;63796;53.136;14.882;2023-06-22T06:26:15;7.20;;;3.40;;
75209;SDS011;63796;53.136;14.882;2023-06-22T06:28:44;5.50;;;3.50;;
75209;SDS011;63796;53.136;14.882;2023-06-22T06:31:11;8.10;;;3.90;;
75209;SDS011;63796;53.136;14.882;2023-06-22T06:33:39;6.30;;;3.80;;
75209;SDS011;63796;53.136;14.882;2023-06-22T06:36:06;7.40;;;3.90;;
75209;SDS011;63796;53.136;14.882;2023-06-22T06:38:35;5.00;;;4.30;;
75209;SDS011;63796;53.136;14.882;2023-06-22T06:41:02;7.20;;;4.30;;
75209;SDS011;63796;53.136;14.882;2023-06-22T06:43:30;5.50;;;4.70;;
75209;SDS011;63796;53.136;14.882;2023-06-22T06:45:57;5.60;;;4.70;;
75209;SDS011;63796;53.136;14.882;2023-06-22T06:48:24;5.80;;;4.80;;
75209;SDS011;63796;53.136;14.882;2023-06-22T06:50:52;5.10;;;4.60;;
75209;SDS011;63796;53.136;14.882;2023-06-22T06:53:19;6.30;;;4.80;;
75209;SDS011;63796;53.136;14.882;2023-06-22T06:55:46;12.30;;;4.40;;
75209;SDS011;63796;53.136;14.882;2023-06-22T06:58:13;5.10;;;4.20;;
75209;SDS011;63796;53.136;14.882;2023-06-22T07:00:42;5.20;;;4.70;;
75209;SDS011;63796;53.136;14.882;2023-06-22T07:03:10;7.30;;;4.80;;
75209;SDS011;63796;53.136;14.882;2023-06-22T07:05:38;5.10;;;4.40;;
75209;SDS011;63796;53.136;14.882;2023-06-22T07:08:08;7.00;;;5.00;;
75209;SDS011;63796;53.136;14.882;2023-06-22T07:10:35;7.20;;;4.40;;
75209;SDS011;63796;53.136;14.882;2023-06-22T07:13:03;5.40;;;4.10;;
75209;SDS011;63796;53.136;14.882;2023-06-22T07:15:30;11.10;;;5.10;;
75209;SDS011;63796;53.136;14.882;2023-06-22T07:17:57;6.10;;;4.50;;
75209;SDS011;63796;53.136;14.882;2023-06-22T07:20:25;5.90;;;5.10;;
75209;SDS011;63796;53.136;14.882;2023-06-22T07:22:52;5.30;;;4.60;;
75209;SDS011;63796;53.136;14.882;2023-06-22T07:25:20;5.00;;;4.60;;
75209;SDS011;63796;53.136;14.882;2023-06-22T07:28:05;12.60;;;5.60;;
75209;SDS011;63796;53.136;14.882;2023-06-22T07:30:33;5.20;;;4.80;;
75209;SDS011;63796;53.136;14.882;2023-06-22T07:33:02;6.00;;;5.40;;
75209;SDS011;63796;53.136;14.882;2023-06-22T07:35:31;6.90;;;5.90;;
75209;SDS011;63796;53.136;14.882;2023-06-22T07:37:59;6.50;;;5.90;;
75209;SDS011;63796;53.136;14.882;2023-06-22T07:40:31;6.10;;;5.50;;
75209;SDS011;63796;53.136;14.882;2023-06-22T07:42:59;6.40;;;5.80;;
75209;SDS011;63796;53.136;14.882;2023-06-22T07:45:26;7.70;;;6.40;;
75209;SDS011;63796;53.136;14.882;2023-06-22T07:47:54;6.70;;;6.10;;
75209;SDS011;63796;53.136;14.882;2023-06-22T07:50:21;7.20;;;6.50;;
75209;SDS011;63796;53.136;14.882;2023-06-22T07:52:48;6.60;;;6.10;;
75209;SDS011;63796;53.136;14.882;2023-06-22T07:55:16;7.40;;;6.70;;
75209;SDS011;63796;53.136;14.882;2023-06-22T07:57:43;6.70;;;6.10;;
75209;SDS011;63796;53.136;14.882;2023-06-22T08:00:11;7.60;;;7.10;;
75209;SDS011;63796;53.136;14.882;2023-06-22T08:02:44;7.70;;;7.10;;
75209;SDS011;63796;53.136;14.882;2023-06-22T08:05:14;7.60;;;7.00;;
75209;SDS011;63796;53.136;14.882;2023-06-22T08:07:49;9.20;;;8.40;;
75209;SDS011;63796;53.136;14.882;2023-06-22T08:10:17;7.50;;;7.00;;
75209;SDS011;63796;53.136;14.882;2023-06-22T08:12:44;7.80;;;7.20;;
75209;SDS011;63796;53.136;14.882;2023-06-22T08:15:12;7.90;;;7.40;;
75209;SDS011;63796;53.136;14.882;2023-06-22T08:17:39;7.80;;;7.30;;
75209;SDS011;63796;53.136;14.882;2023-06-22T08:20:07;9.50;;;8.60;;
75209;SDS011;63796;53.136;14.882;2023-06-22T08:22:42;9.80;;;9.20;;
75209;SDS011;63796;53.136;14.882;2023-06-22T08:25:10;9.60;;;8.80;;
75209;SDS011;63796;53.136;14.882;2023-06-22T08:27:38;10.00;;;9.00;;
75209;SDS011;63796;53.136;14.882;2023-06-22T08:30:06;9.20;;;8.70;;
75209;SDS011;63796;53.136;14.882;2023-06-22T08:32:34;10.70;;;9.80;;
75209;SDS011;63796;53.136;14.882;2023-06-22T08:35:02;11.10;;;10.30;;
75209;SDS011;63796;53.136;14.882;2023-06-22T08:37:29;11.10;;;10.40;;
75209;SDS011;63796;53.136;14.882;2023-06-22T08:40:05;10.50;;;9.80;;
75209;SDS011;63796;53.136;14.882;2023-06-22T08:42:40;11.40;;;10.60;;
75209;SDS011;63796;53.136;14.882;2023-06-22T08:45:08;11.70;;;10.90;;
75209;SDS011;63796;53.136;14.882;2023-06-22T08:47:35;12.80;;;11.80;;
75209;SDS011;63796;53.136;14.882;2023-06-22T08:50:03;12.80;;;12.00;;
75209;SDS011;63796;53.136;14.882;2023-06-22T08:52:31;14.60;;;13.60;;
75209;SDS011;63796;53.136;14.882;2023-06-22T08:54:58;13.80;;;13.00;;
75209;SDS011;63796;53.136;14.882;2023-06-22T08:57:26;14.40;;;13.50;;
75209;SDS011;63796;53.136;14.882;2023-06-22T08:59:54;14.00;;;13.10;;
75209;SDS011;63796;53.136;14.882;2023-06-22T09:02:27;13.50;;;12.50;;
75209;SDS011;63796;53.136;14.882;2023-06-22T09:04:58;13.10;;;12.30;;
75209;SDS011;63796;53.136;14.882;2023-06-22T09:07:26;12.60;;;11.90;;
75209;SDS011;63796;53.136;14.882;2023-06-22T09:09:53;14.60;;;13.60;;
75209;SDS011;63796;53.136;14.882;2023-06-22T09:12:21;15.20;;;14.20;;
75209;SDS011;63796;53.136;14.882;2023-06-22T09:14:53;15.40;;;14.40;;
75209;SDS011;63796;53.136;14.882;2023-06-22T09:17:22;17.10;;;16.00;;
75209;SDS011;63796;53.136;14.882;2023-06-22T09:19:49;16.00;;;15.00;;
75209;SDS011;63796;53.136;14.882;2023-06-22T09:22:17;17.50;;;16.40;;
75209;SDS011;63796;53.136;14.882;2023-06-22T09:24:44;17.80;;;16.70;;
75209;SDS011;63796;53.136;14.882;2023-06-22T09:27:11;17.40;;;16.30;;
75209;SDS011;63796;53.136;14.882;2023-06-22T09:29:39;16.10;;;15.00;;
75209;SDS011;63796;53.136;14.882;2023-06-22T09:32:06;16.10;;;15.00;;
75209;SDS011;63796;53.136;14.882;2023-06-22T09:34:34;14.00;;;12.90;;
75209;SDS011;63796;53.136;14.882;2023-06-22T09:37:01;13.70;;;12.80;;
75209;SDS011;63796;53.136;14.882;2023-06-22T09:39:29;13.30;;;12.40;;
75209;SDS011;63796;53.136;14.882;2023-06-22T09:41:59;15.90;;;14.40;;
75209;SDS011;63796;53.136;14.882;2023-06-22T09:44:27;14.70;;;13.80;;
75209;SDS011;63796;53.136;14.882;2023-06-22T09:46:54;16.30;;;15.30;;
75209;SDS011;63796;53.136;14.882;2023-06-22T09:49:21;16.80;;;15.80;;
75209;SDS011;63796;53.136;14.882;2023-06-22T09:52:09;19.20;;;18.00;;
75209;SDS011;63796;53.136;14.882;2023-06-22T09:54:36;16.60;;;15.50;;
75209;SDS011;63796;53.136;14.882;2023-06-22T09:57:06;18.50;;;17.40;;
75209;SDS011;63796;53.136;14.882;2023-06-22T09:59:33;18.30;;;17.30;;
75209;SDS011;63796;53.136;14.882;2023-06-22T10:02:04;17.50;;;16.60;;
75209;SDS011;63796;53.136;14.882;2023-06-22T10:04:31;16.30;;;15.20;;
75209;SDS011;63796;53.136;14.882;2023-06-22T10:06:59;16.20;;;15.10;;
75209;SDS011;63796;53.136;14.882;2023-06-22T10:09:27;15.60;;;14.70;;
75209;SDS011;63796;53.136;14.882;2023-06-22T10:11:54;16.00;;;15.00;;
75209;SDS011;63796;53.136;14.882;2023-06-22T10:14:22;16.20;;;15.10;;
75209;SDS011;63796;53.136;14.882;2023-06-22T10:16:49;14.00;;;13.00;;
75209;SDS011;63796;53.136;14.882;2023-06-22T10:19:17;10.80;;;10.10;;
75209;SDS011;63796;53.136;14.882;2023-06-22T10:21:44;10.80;;;10.10;;
75209;SDS011;63796;53.136;14.882;2023-06-22T10:24:12;9.60;;;8.80;;
75209;SDS011;63796;53.136;14.882;2023-06-22T10:26:39;9.00;;;8.40;;
75209;SDS011;63796;53.136;14.882;2023-06-22T10:29:06;7.90;;;7.40;;
75209;SDS011;63796;53.136;14.882;2023-06-22T10:31:49;7.70;;;7.10;;
75209;SDS011;63796;53.136;14.882;2023-06-22T10:34:18;6.90;;;5.60;;
75209;SDS011;63796;53.136;14.882;2023-06-22T10:36:54;10.80;;;10.00;;
75209;SDS011;63796;53.136;14.882;2023-06-22T10:39:22;5.60;;;5.10;;
75209;SDS011;63796;53.136;14.882;2023-06-22T10:41:49;4.60;;;4.30;;
75209;SDS011;63796;53.136;14.882;2023-06-22T10:44:16;4.60;;;4.30;;
75209;SDS011;63796;53.136;14.882;2023-06-22T10:46:44;4.10;;;3.80;;
75209;SDS011;63796;53.136;14.882;2023-06-22T10:49:14;4.40;;;4.00;;
75209;SDS011;63796;53.136;14.882;2023-06-22T10:51:41;4.00;;;3.70;;
75209;SDS011;63796;53.136;14.882;2023-06-22T10:54:09;4.20;;;3.90;;
75209;SDS011;63796;53.136;14.882;2023-06-22T10:56:36;3.80;;;3.50;;
75209;SDS011;63796;53.136;14.882;2023-06-22T10:59:04;3.60;;;3.40;;
75209;SDS011;63796;53.136;14.882;2023-06-22T11:01:31;3.90;;;3.60;;
75209;SDS011;63796;53.136;14.882;2023-06-22T11:04:03;3.80;;;3.40;;
75209;SDS011;63796;53.136;14.882;2023-06-22T11:06:32;3.60;;;3.30;;
75209;SDS011;63796;53.136;14.882;2023-06-22T11:09:00;3.10;;;2.80;;
75209;SDS011;63796;53.136;14.882;2023-06-22T11:11:47;3.20;;;3.00;;
75209;SDS011;63796;53.136;14.882;2023-06-22T11:14:15;4.10;;;3.50;;
75209;SDS011;63796;53.136;14.882;2023-06-22T11:16:42;6.10;;;3.40;;
75209;SDS011;63796;53.136;14.882;2023-06-22T11:19:10;3.30;;;3.00;;
75209;SDS011;63796;53.136;14.882;2023-06-22T11:21:37;10.60;;;3.50;;
75209;SDS011;63796;53.136;14.882;2023-06-22T11:24:06;4.70;;;3.10;;
75209;SDS011;63796;53.136;14.882;2023-06-22T11:26:33;3.30;;;3.00;;
75209;SDS011;63796;53.136;14.882;2023-06-22T11:29:01;3.50;;;3.20;;
75209;SDS011;63796;53.136;14.882;2023-06-22T11:31:32;4.50;;;4.10;;
75209;SDS011;63796;53.136;14.882;2023-06-22T11:34:00;3.50;;;3.30;;
75209;SDS011;63796;53.136;14.882;2023-06-22T11:36:28;3.70;;;3.40;;
75209;SDS011;63796;53.136;14.882;2023-06-22T11:38:56;4.40;;;4.00;;
75209;SDS011;63796;53.136;14.882;2023-06-22T11:41:23;3.60;;;3.40;;
75209;SDS011;63796;53.136;14.882;2023-06-22T11:43:50;3.50;;;3.20;;
75209;SDS011;63796;53.136;14.882;2023-06-22T11:46:18;4.30;;;3.60;;
75209;SDS011;63796;53.136;14.882;2023-06-22T11:48:45;5.70;;;3.60;;
75209;SDS011;63796;53.136;14.882;2023-06-22T11:51:12;4.30;;;3.70;;
75209;SDS011;63796;53.136;14.882;2023-06-22T11:53:40;4.80;;;3.20;;
75209;SDS011;63796;53.136;14.882;2023-06-22T11:56:07;3.40;;;3.10;;
75209;SDS011;63796;53.136;14.882;2023-06-22T11:58:36;3.60;;;3.00;;
75209;SDS011;63796;53.136;14.882;2023-06-22T12:01:04;4.60;;;3.40;;
75209;SDS011;63796;53.136;14.882;2023-06-22T12:03:32;3.50;;;3.20;;
75209;SDS011;63796;53.136;14.882;2023-06-22T12:05:59;3.50;;;3.20;;
75209;SDS011;63796;53.136;14.882;2023-06-22T12:08:27;5.40;;;2.90;;
75209;SDS011;63796;53.136;14.882;2023-06-22T12:10:54;3.50;;;3.00;;
75209;SDS011;63796;53.136;14.882;2023-06-22T12:13:22;2.70;;;2.50;;
75209;SDS011;63796;53.136;14.882;2023-06-22T12:15:50;2.80;;;2.50;;
75209;SDS011;63796;53.136;14.882;2023-06-22T12:18:19;10.80;;;3.30;;
75209;SDS011;63796;53.136;14.882;2023-06-22T12:20:48;3.70;;;2.80;;
75209;SDS011;63796;53.136;14.882;2023-06-22T12:23:16;3.40;;;2.50;;
75209;SDS011;63796;53.136;14.882;2023-06-22T12:25:44;3.20;;;2.80;;
75209;SDS011;63796;53.136;14.882;2023-06-22T12:28:12;5.80;;;2.50;;
75209;SDS011;63796;53.136;14.882;2023-06-22T12:30:39;8.20;;;3.40;;
75209;SDS011;63796;53.136;14.882;2023-06-22T12:33:06;3.60;;;3.30;;
75209;SDS011;63796;53.136;14.882;2023-06-22T12:35:34;8.30;;;6.30;;
75209;SDS011;63796;53.136;14.882;2023-06-22T12:38:01;3.30;;;3.00;;
75209;SDS011;63796;53.136;14.882;2023-06-22T12:40:30;4.70;;;3.10;;
75209;SDS011;63796;53.136;14.882;2023-06-22T12:42:58;5.40;;;2.70;;
75209;SDS011;63796;53.136;14.882;2023-06-22T12:45:25;3.70;;;2.80;;
75209;SDS011;63796;53.136;14.882;2023-06-22T12:47:55;3.70;;;2.40;;
75209;SDS011;63796;53.136;14.882;2023-06-22T12:50:23;3.00;;;2.70;;
75209;SDS011;63796;53.136;14.882;2023-06-22T12:52:50;3.30;;;3.00;;
75209;SDS011;63796;53.136;14.882;2023-06-22T12:55:18;4.00;;;3.40;;
75209;SDS011;63796;53.136;14.882;2023-06-22T12:57:45;6.10;;;4.50;;
75209;SDS011;63796;53.136;14.882;2023-06-22T13:00:13;5.40;;;4.90;;
75209;SDS011;63796;53.136;14.882;2023-06-22T13:02:40;4.30;;;3.10;;
75209;SDS011;63796;53.136;14.882;2023-06-22T13:05:08;3.70;;;2.80;;
75209;SDS011;63796;53.136;14.882;2023-06-22T13:07:35;4.20;;;3.10;;
75209;SDS011;63796;53.136;14.882;2023-06-22T13:10:03;3.30;;;2.50;;
75209;SDS011;63796;53.136;14.882;2023-06-22T13:12:31;2.70;;;2.50;;
75209;SDS011;63796;53.136;14.882;2023-06-22T13:14:58;3.50;;;2.70;;
75209;SDS011;63796;53.136;14.882;2023-06-22T13:17:26;4.30;;;3.00;;
75209;SDS011;63796;53.136;14.882;2023-06-22T13:19:54;3.30;;;3.00;;
75209;SDS011;63796;53.136;14.882;2023-06-22T13:22:32;4.50;;;2.70;;
75209;SDS011;63796;53.136;14.882;2023-06-22T13:25:00;2.90;;;2.60;;
75209;SDS011;63796;53.136;14.882;2023-06-22T13:27:27;4.50;;;3.30;;
75209;SDS011;63796;53.136;14.882;2023-06-22T13:29:54;2.90;;;2.60;;
75209;SDS011;63796;53.136;14.882;2023-06-22T13:32:22;2.90;;;2.60;;
75209;SDS011;63796;53.136;14.882;2023-06-22T13:34:51;6.90;;;5.50;;
75209;SDS011;63796;53.136;14.882;2023-06-22T13:37:18;4.20;;;3.70;;
75209;SDS011;63796;53.136;14.882;2023-06-22T13:39:46;3.60;;;3.30;;
75209;SDS011;63796;53.136;14.882;2023-06-22T13:42:13;2.80;;;2.60;;
75209;SDS011;63796;53.136;14.882;2023-06-22T13:44:41;3.60;;;3.30;;
75209;SDS011;63796;53.136;14.882;2023-06-22T13:47:08;2.80;;;2.60;;
75209;SDS011;63796;53.136;14.882;2023-06-22T13:49:35;4.50;;;2.70;;
75209;SDS011;63796;53.136;14.882;2023-06-22T13:52:03;4.70;;;3.50;;
75209;SDS011;63796;53.136;14.882;2023-06-22T13:54:33;3.00;;;2.70;;
75209;SDS011;63796;53.136;14.882;2023-06-22T13:57:02;3.40;;;2.90;;
75209;SDS011;63796;53.136;14.882;2023-06-22T13:59:29;4.80;;;2.80;;
75209;SDS011;63796;53.136;14.882;2023-06-22T14:01:57;6.00;;;2.70;;
75209;SDS011;63796;53.136;14.882;2023-06-22T14:04:24;5.40;;;3.10;;
75209;SDS011;63796;53.136;14.882;2023-06-22T14:06:52;3.20;;;3.00;;
75209;SDS011;63796;53.136;14.882;2023-06-22T14:09:23;4.20;;;2.70;;
75209;SDS011;63796;53.136;14.882;2023-06-22T14:11:50;4.10;;;3.20;;
75209;SDS011;63796;53.136;14.882;2023-06-22T14:14:18;3.60;;;3.00;;
75209;SDS011;63796;53.136;14.882;2023-06-22T14:16:45;3.30;;;2.90;;
75209;SDS011;63796;53.136;14.882;2023-06-22T14:19:12;5.10;;;3.00;;
75209;SDS011;63796;53.136;14.882;2023-06-22T14:21:40;4.80;;;3.20;;
75209;SDS011;63796;53.136;14.882;2023-06-22T14:24:07;4.30;;;3.20;;
75209;SDS011;63796;53.136;14.882;2023-06-22T14:26:35;3.40;;;2.80;;
75209;SDS011;63796;53.136;14.882;2023-06-22T14:29:02;3.20;;;3.00;;
75209;SDS011;63796;53.136;14.882;2023-06-22T14:31:29;3.10;;;2.80;;
75209;SDS011;63796;53.136;14.882;2023-06-22T14:33:57;3.60;;;3.30;;
75209;SDS011;63796;53.136;14.882;2023-06-22T14:36:24;5.90;;;3.90;;
75209;SDS011;63796;53.136;14.882;2023-06-22T14:38:51;6.40;;;3.60;;
75209;SDS011;63796;53.136;14.882;2023-06-22T14:41:19;3.90;;;3.50;;